createdAt,value
2022-12-18T00:01:49.373Z,99.70
2022-12-18T00:04:25.282Z,99.80
2022-12-18T00:06:52.054Z,99.60
2022-12-18T00:09:18.650Z,99.70
2022-12-18T00:11:45.301Z,99.50
2022-12-18T00:14:13.843Z,99.60
2022-12-18T00:16:40.996Z,99.80
2022-12-18T00:19:08.354Z,99.70
2022-12-18T00:21:35.065Z,99.70
2022-12-18T00:24:01.799Z,99.60
2022-12-18T00:26:33.074Z,99.70
2022-12-18T00:29:14.715Z,99.80
2022-12-18T00:31:42.592Z,99.80
2022-12-18T00:34:12.588Z,99.70
2022-12-18T00:36:41.877Z,99.70
2022-12-18T00:39:10.409Z,99.60
2022-12-18T00:41:55.501Z,99.40
2022-12-18T00:44:22.092Z,99.40
2022-12-18T00:46:49.227Z,99.60
2022-12-18T00:49:18.633Z,99.60
2022-12-18T00:51:46.328Z,99.60
2022-12-18T00:54:13.454Z,99.60
2022-12-18T00:56:48.296Z,99.60
2022-12-18T00:59:17.164Z,99.60
2022-12-18T01:01:43.943Z,99.50
2022-12-18T01:04:10.635Z,99.50
2022-12-18T01:06:37.206Z,99.50
2022-12-18T01:09:04.097Z,99.50
2022-12-18T01:11:31.365Z,99.50
2022-12-18T01:14:01.000Z,99.60
2022-12-18T01:16:27.996Z,99.60
2022-12-18T01:18:55.747Z,99.60
2022-12-18T01:21:23.844Z,99.70
2022-12-18T01:23:55.273Z,99.70
2022-12-18T01:26:22.061Z,99.60
2022-12-18T01:28:48.847Z,99.50
2022-12-18T01:31:16.903Z,99.30
2022-12-18T01:33:44.138Z,99.20
2022-12-18T01:36:25.852Z,99.20
2022-12-18T01:38:53.961Z,99.20
2022-12-18T01:41:26.407Z,99.30
2022-12-18T01:43:58.415Z,99.40
2022-12-18T01:46:26.724Z,99.50
2022-12-18T01:49:01.987Z,99.60
2022-12-18T01:51:31.253Z,99.60
2022-12-18T01:53:58.652Z,99.50
2022-12-18T01:56:25.235Z,99.50
2022-12-18T01:58:58.433Z,99.60
2022-12-18T02:01:26.259Z,99.70
2022-12-18T02:03:53.376Z,99.70
2022-12-18T02:06:39.381Z,99.60
2022-12-18T02:09:21.449Z,99.50
2022-12-18T02:12:11.622Z,99.60
2022-12-18T02:15:05.772Z,99.60
2022-12-18T02:17:41.933Z,99.50
2022-12-18T02:20:20.842Z,99.40
2022-12-18T02:23:21.158Z,99.50
2022-12-18T02:25:59.814Z,99.60
2022-12-18T02:28:32.783Z,99.70
2022-12-18T02:31:03.798Z,99.80
2022-12-18T02:33:32.174Z,99.80
2022-12-18T02:36:00.875Z,99.80
2022-12-18T02:38:29.740Z,99.90
2022-12-18T02:40:57.737Z,99.90
2022-12-18T02:43:24.359Z,99.90
2022-12-18T02:45:56.476Z,99.90
2022-12-18T02:48:34.751Z,99.80
2022-12-18T02:51:23.618Z,99.70
2022-12-18T02:54:07.441Z,99.80
2022-12-18T02:56:45.117Z,99.90
2022-12-18T02:59:23.029Z,99.90
2022-12-18T03:02:24.731Z,99.90
2022-12-18T03:05:05.320Z,99.90
2022-12-18T03:07:40.078Z,99.90
2022-12-18T03:10:10.303Z,99.90
2022-12-18T03:12:41.067Z,99.90
2022-12-18T03:15:29.697Z,99.90
2022-12-18T03:18:07.568Z,99.80
2022-12-18T03:20:36.416Z,99.70
2022-12-18T03:23:11.742Z,99.80
2022-12-18T03:25:41.795Z,99.70
2022-12-18T03:28:13.703Z,99.80
2022-12-18T03:30:42.457Z,99.90
2022-12-18T03:33:20.912Z,99.90
2022-12-18T03:35:47.942Z,99.90
2022-12-18T03:38:15.120Z,99.80
2022-12-18T03:40:56.835Z,99.70
2022-12-18T03:43:58.175Z,99.60
2022-12-18T03:46:29.545Z,99.60
2022-12-18T03:49:26.213Z,99.60
2022-12-18T03:52:06.445Z,99.90
2022-12-18T03:54:36.091Z,99.70
2022-12-18T03:57:09.751Z,99.80
2022-12-18T03:59:38.462Z,99.80
2022-12-18T04:02:07.753Z,99.80
2022-12-18T04:04:36.763Z,99.80
2022-12-18T04:07:04.135Z,99.80
2022-12-18T04:09:32.800Z,99.90
2022-12-18T04:11:59.344Z,99.90
2022-12-18T04:14:25.958Z,99.90
2022-12-18T04:16:52.526Z,99.90
2022-12-18T04:19:19.145Z,99.90
2022-12-18T04:21:45.704Z,99.90
2022-12-18T04:24:12.277Z,99.90
2022-12-18T04:26:39.248Z,99.90
2022-12-18T04:29:05.802Z,99.90
2022-12-18T04:31:32.357Z,99.90
2022-12-18T04:33:58.907Z,99.90
2022-12-18T04:36:28.480Z,99.90
2022-12-18T04:38:55.055Z,99.80
2022-12-18T04:41:21.990Z,99.70
2022-12-18T04:43:48.560Z,99.70
2022-12-18T04:46:15.293Z,99.80
2022-12-18T04:48:42.123Z,99.90
2022-12-18T04:51:08.774Z,99.80
2022-12-18T04:53:35.409Z,99.70
2022-12-18T04:56:13.955Z,99.70
2022-12-18T04:58:42.336Z,99.80
2022-12-18T05:01:09.779Z,99.80
2022-12-18T05:03:37.657Z,99.90
2022-12-18T05:06:06.037Z,99.80
2022-12-18T05:08:33.248Z,99.90
2022-12-18T05:11:01.247Z,99.90
2022-12-18T05:13:29.337Z,99.90
2022-12-18T05:15:56.302Z,99.90
2022-12-18T05:18:24.515Z,99.90
2022-12-18T05:20:51.993Z,99.90
2022-12-18T05:23:19.102Z,99.90
2022-12-18T05:25:57.471Z,99.90
2022-12-18T05:28:25.522Z,99.90
2022-12-18T05:30:54.615Z,99.90
2022-12-18T05:33:23.085Z,99.90
2022-12-18T05:35:56.767Z,99.80
2022-12-18T05:38:25.318Z,99.70
2022-12-18T05:40:52.209Z,99.70
2022-12-18T05:43:21.670Z,99.80
2022-12-18T05:45:49.403Z,99.80
2022-12-18T05:48:16.870Z,99.80
2022-12-18T05:50:48.403Z,99.90
2022-12-18T05:53:17.708Z,99.90
2022-12-18T05:55:44.981Z,99.80
2022-12-18T05:58:13.804Z,99.80
2022-12-18T06:00:43.285Z,99.80
2022-12-18T06:03:11.306Z,99.70
2022-12-18T06:05:39.999Z,99.80
2022-12-18T06:08:06.897Z,99.80
2022-12-18T06:10:33.580Z,99.70
2022-12-18T06:13:00.699Z,99.60
2022-12-18T06:15:27.405Z,99.50
2022-12-18T06:17:53.938Z,99.60
2022-12-18T06:20:20.830Z,99.60
2022-12-18T06:22:47.413Z,99.60
2022-12-18T06:25:13.981Z,99.60
2022-12-18T06:27:40.690Z,99.50
2022-12-18T06:30:09.681Z,99.50
2022-12-18T06:32:36.205Z,99.40
2022-12-18T06:35:02.790Z,99.40
2022-12-18T06:37:29.353Z,99.30
2022-12-18T06:39:57.428Z,99.30
2022-12-18T06:42:24.812Z,99.30
2022-12-18T06:44:51.775Z,99.30
2022-12-18T06:47:18.884Z,99.30
2022-12-18T06:49:45.463Z,99.20
2022-12-18T06:52:12.024Z,99.20
2022-12-18T06:54:38.552Z,99.30
2022-12-18T06:57:05.133Z,99.40
2022-12-18T06:59:31.693Z,99.30
2022-12-18T07:01:58.348Z,99.40
2022-12-18T07:04:32.704Z,99.50
2022-12-18T07:06:59.297Z,99.20
2022-12-18T07:09:26.196Z,99.00
2022-12-18T07:11:53.420Z,99.00
2022-12-18T07:14:20.124Z,99.00
2022-12-18T07:16:46.767Z,99.00
2022-12-18T07:19:13.313Z,99.10
2022-12-18T07:21:39.865Z,99.00
2022-12-18T07:24:06.899Z,99.20
2022-12-18T07:26:33.569Z,99.20
2022-12-18T07:29:00.124Z,99.20
2022-12-18T07:31:27.776Z,99.10
2022-12-18T07:33:54.492Z,99.20
2022-12-18T07:36:21.236Z,99.20
2022-12-18T07:38:49.209Z,99.10
2022-12-18T07:41:15.839Z,99.10
2022-12-18T07:43:43.318Z,99.00
2022-12-18T07:46:13.233Z,99.10
2022-12-18T07:48:41.136Z,99.20
2022-12-18T07:51:08.916Z,99.20
2022-12-18T07:53:36.921Z,99.40
2022-12-18T07:58:54.307Z,99.20
2022-12-18T08:01:21.338Z,99.10
2022-12-18T08:03:48.092Z,99.00
2022-12-18T08:06:14.853Z,99.00
2022-12-18T08:08:43.077Z,98.80
2022-12-18T08:11:09.723Z,98.90
2022-12-18T08:13:36.453Z,98.80
2022-12-18T08:16:08.094Z,98.90
2022-12-18T08:18:36.263Z,98.80
2022-12-18T08:21:10.573Z,98.80
2022-12-18T08:23:42.385Z,99.00
2022-12-18T08:26:11.098Z,99.20
2022-12-18T08:28:37.761Z,99.30
2022-12-18T08:31:04.842Z,99.00
2022-12-18T08:33:31.620Z,99.20
2022-12-18T08:35:59.674Z,99.00
2022-12-18T08:38:26.262Z,98.60
2022-12-18T08:41:10.018Z,98.70
2022-12-18T08:43:55.252Z,99.00
2022-12-18T08:46:23.575Z,98.60
2022-12-18T08:48:52.682Z,98.70
2022-12-18T08:51:20.612Z,98.70
2022-12-18T08:53:47.997Z,98.70
2022-12-18T08:56:15.552Z,98.80
2022-12-18T08:58:42.601Z,98.90
2022-12-18T09:01:11.928Z,98.70
2022-12-18T09:03:39.565Z,98.70
2022-12-18T09:06:06.833Z,98.80
2022-12-18T09:08:33.474Z,98.90
2022-12-18T09:11:00.045Z,99.10
2022-12-18T09:13:26.680Z,99.20
2022-12-18T09:15:55.350Z,99.20
2022-12-18T09:18:23.855Z,99.10
2022-12-18T09:20:52.670Z,99.10
2022-12-18T09:23:19.369Z,99.10
2022-12-18T09:25:45.943Z,99.10
2022-12-18T09:28:15.464Z,99.00
2022-12-18T09:30:45.543Z,98.70
2022-12-18T09:33:12.371Z,98.40
2022-12-18T09:35:39.985Z,98.70
2022-12-18T09:38:07.239Z,99.00
2022-12-18T09:40:46.026Z,98.90
2022-12-18T09:43:23.735Z,98.80
2022-12-18T09:45:58.132Z,98.80
2022-12-18T09:48:31.697Z,98.70
2022-12-18T09:51:04.604Z,98.80
2022-12-18T09:53:36.052Z,98.70
2022-12-18T09:56:05.484Z,98.80
2022-12-18T09:58:56.556Z,98.80
2022-12-18T10:01:24.088Z,98.60
2022-12-18T10:03:52.592Z,98.90
2022-12-18T10:06:39.163Z,99.10
2022-12-18T10:09:29.029Z,99.10
2022-12-18T10:12:21.598Z,99.00
2022-12-18T10:15:03.406Z,98.40
2022-12-18T10:17:48.595Z,98.50
2022-12-18T10:20:25.260Z,98.60
2022-12-18T10:22:56.571Z,98.50
2022-12-18T10:25:42.824Z,98.10
2022-12-18T10:28:17.395Z,98.10
2022-12-18T10:30:44.871Z,97.80
2022-12-18T10:33:23.711Z,97.40
2022-12-18T10:35:54.052Z,97.00
2022-12-18T10:38:22.731Z,95.80
2022-12-18T10:40:57.437Z,95.20
2022-12-18T10:43:30.961Z,96.00
2022-12-18T10:46:08.864Z,96.50
2022-12-18T10:48:52.929Z,96.90
2022-12-18T10:51:31.487Z,97.10
2022-12-18T10:54:02.215Z,97.00
2022-12-18T10:56:31.663Z,96.70
2022-12-18T10:59:07.410Z,95.40
2022-12-18T11:02:24.693Z,95.40
2022-12-18T11:04:52.911Z,95.40
2022-12-18T11:07:19.632Z,95.00
2022-12-18T11:10:01.224Z,95.00
2022-12-18T11:12:29.512Z,94.50
2022-12-18T11:14:58.548Z,94.60
2022-12-18T11:17:34.391Z,93.50
2022-12-18T11:20:04.686Z,93.90
2022-12-18T11:22:39.056Z,93.50
2022-12-18T11:28:02.415Z,93.90
2022-12-18T11:30:38.586Z,93.80
2022-12-18T11:33:13.996Z,94.40
2022-12-18T11:35:43.882Z,93.80
2022-12-18T11:38:24.976Z,94.20
2022-12-18T11:41:06.586Z,94.40
2022-12-18T11:43:41.523Z,94.00
2022-12-18T11:46:30.542Z,94.10
2022-12-18T11:49:16.235Z,93.60
2022-12-18T11:51:48.780Z,94.00
2022-12-18T11:54:16.744Z,93.70
2022-12-18T11:56:56.381Z,94.10
2022-12-18T11:59:26.803Z,94.10
2022-12-18T12:02:01.048Z,93.70
2022-12-18T12:05:02.101Z,94.80
2022-12-18T12:07:35.768Z,94.30
2022-12-18T12:10:24.864Z,94.50
2022-12-18T12:13:10.999Z,94.30
2022-12-18T12:15:46.496Z,94.70
2022-12-18T12:18:34.836Z,95.40
2022-12-18T12:21:14.664Z,95.70
2022-12-18T12:24:07.205Z,95.70
2022-12-18T12:26:46.253Z,95.50
2022-12-18T12:29:39.970Z,95.70
2022-12-18T12:32:25.107Z,95.20
2022-12-18T12:35:04.752Z,95.20
2022-12-18T12:37:57.757Z,94.20
2022-12-18T12:40:51.335Z,94.40
2022-12-18T12:43:22.099Z,94.70
2022-12-18T12:46:02.844Z,94.40
2022-12-18T12:48:43.782Z,94.70
2022-12-18T12:51:24.747Z,94.60
2022-12-18T12:53:53.894Z,94.50
2022-12-18T12:56:22.152Z,94.00
2022-12-18T12:59:19.801Z,94.00
2022-12-18T13:02:13.918Z,93.80
2022-12-18T13:04:49.805Z,94.50
2022-12-18T13:07:28.745Z,94.50
2022-12-18T13:10:20.600Z,94.80
2022-12-18T13:12:59.315Z,94.80
2022-12-18T13:15:37.592Z,94.70
2022-12-18T13:18:10.008Z,94.90
2022-12-18T13:20:42.543Z,94.60
2022-12-18T13:23:40.805Z,94.90
2022-12-18T13:26:08.877Z,94.90
2022-12-18T13:28:47.701Z,95.00
2022-12-18T13:31:15.478Z,95.50
2022-12-18T13:34:09.390Z,94.90
2022-12-18T13:36:33.233Z,95.50
2022-12-18T13:39:18.443Z,95.40
2022-12-18T13:41:51.393Z,94.90
2022-12-18T13:44:40.651Z,94.90
2022-12-18T13:47:38.354Z,95.00
2022-12-18T13:50:23.728Z,94.90
2022-12-18T13:52:51.991Z,95.10
2022-12-18T13:55:21.576Z,95.10
2022-12-18T13:57:48.201Z,95.00
2022-12-18T14:00:31.490Z,94.80
2022-12-18T14:02:59.594Z,94.60
2022-12-18T14:05:32.131Z,94.80
2022-12-18T14:08:06.818Z,95.00
2022-12-18T14:10:48.299Z,94.60
2022-12-18T14:13:32.228Z,94.80
2022-12-18T14:16:01.546Z,94.30
2022-12-18T14:18:34.371Z,94.60
2022-12-18T14:21:03.106Z,94.60
2022-12-18T14:23:35.659Z,94.60
2022-12-18T14:26:20.771Z,94.60
2022-12-18T14:28:47.984Z,94.60
2022-12-18T14:31:29.008Z,94.10
2022-12-18T14:33:55.684Z,93.60
2022-12-18T14:36:27.531Z,93.80
2022-12-18T14:38:56.381Z,94.00
2022-12-18T14:41:24.634Z,93.70
2022-12-18T14:43:53.701Z,93.40
2022-12-18T14:46:36.348Z,93.60
2022-12-18T14:49:22.357Z,93.80
2022-12-18T14:51:55.397Z,93.60
2022-12-18T14:54:23.533Z,93.80
2022-12-18T14:56:57.088Z,94.00
2022-12-18T14:59:26.068Z,94.00
2022-12-18T15:02:25.003Z,94.20
2022-12-18T15:05:19.610Z,94.20
2022-12-18T15:07:51.478Z,94.30
2022-12-18T15:10:19.393Z,94.40
2022-12-18T15:13:10.948Z,94.50
2022-12-18T15:15:37.472Z,94.60
2022-12-18T15:18:08.399Z,94.80
2022-12-18T15:20:42.707Z,95.00
2022-12-18T15:23:44.737Z,95.20
2022-12-18T15:26:13.930Z,95.10
2022-12-18T15:28:49.483Z,95.20
2022-12-18T15:31:17.864Z,95.30
2022-12-18T15:33:53.878Z,95.40
2022-12-18T15:36:26.490Z,95.60
2022-12-18T15:38:55.505Z,95.60
2022-12-18T15:41:25.297Z,95.70
2022-12-18T15:43:54.665Z,95.80
2022-12-18T15:46:23.435Z,95.80
2022-12-18T15:48:55.524Z,95.90
2022-12-18T15:51:39.024Z,95.90
2022-12-18T15:54:10.321Z,96.00
2022-12-18T15:56:55.803Z,96.10
2022-12-18T15:59:23.870Z,96.10
2022-12-18T16:01:53.818Z,96.20
2022-12-18T16:04:22.103Z,96.20
2022-12-18T16:07:14.739Z,96.20
2022-12-18T16:09:39.687Z,96.10
2022-12-18T16:12:07.431Z,96.10
2022-12-18T16:14:34.128Z,96.30
2022-12-18T16:17:06.380Z,96.30
2022-12-18T16:19:32.996Z,96.20
2022-12-18T16:21:59.873Z,96.20
2022-12-18T16:24:28.913Z,95.70
2022-12-18T16:26:58.617Z,95.50
2022-12-18T16:29:28.015Z,95.00
2022-12-18T16:31:56.098Z,95.10
2022-12-18T16:34:31.401Z,94.70
2022-12-18T16:37:05.131Z,94.90
2022-12-18T16:39:34.159Z,94.70
2022-12-18T16:42:06.341Z,92.70
2022-12-18T16:44:34.266Z,92.60
2022-12-18T16:47:02.786Z,92.40
2022-12-18T16:49:30.106Z,91.80
2022-12-18T16:51:57.041Z,91.60
2022-12-18T16:54:24.810Z,91.80
2022-12-18T16:56:52.375Z,91.90
2022-12-18T16:59:22.917Z,90.80
2022-12-18T17:01:51.213Z,90.60
2022-12-18T17:04:18.552Z,90.90
2022-12-18T17:06:51.635Z,90.50
2022-12-18T17:09:25.434Z,90.30
2022-12-18T17:11:53.227Z,90.70
2022-12-18T17:14:23.324Z,91.00
2022-12-18T17:17:07.253Z,91.30
2022-12-18T17:19:39.119Z,90.90
2022-12-18T17:22:11.141Z,91.10
2022-12-18T17:24:38.593Z,90.80
2022-12-18T17:27:05.745Z,90.90
2022-12-18T17:29:32.339Z,91.20
2022-12-18T17:32:00.479Z,90.80
2022-12-18T17:34:27.715Z,90.70
2022-12-18T17:36:55.080Z,90.90
2022-12-18T17:39:21.768Z,91.00
2022-12-18T17:41:48.970Z,90.90
2022-12-18T17:44:17.045Z,91.20
2022-12-18T17:46:44.443Z,91.20
2022-12-18T17:49:11.651Z,91.20
2022-12-18T17:51:38.621Z,91.50
2022-12-18T17:54:05.491Z,91.50
2022-12-18T17:56:32.806Z,91.70
2022-12-18T17:59:00.020Z,91.60
2022-12-18T18:01:27.728Z,91.70
2022-12-18T18:03:57.912Z,91.90
2022-12-18T18:06:25.711Z,91.90
2022-12-18T18:08:53.529Z,92.00
2022-12-18T18:11:40.149Z,92.10
2022-12-18T18:14:12.529Z,92.10
2022-12-18T18:16:44.393Z,92.10
2022-12-18T18:19:17.216Z,92.10
2022-12-18T18:21:46.987Z,92.20
2022-12-18T18:24:17.369Z,92.30
2022-12-18T18:26:47.660Z,92.40
2022-12-18T18:29:18.367Z,92.30
2022-12-18T18:31:45.664Z,92.50
2022-12-18T18:34:18.595Z,92.50
2022-12-18T18:36:48.769Z,92.50
2022-12-18T18:39:15.337Z,92.40
2022-12-18T18:41:48.317Z,92.40
2022-12-18T18:44:16.304Z,92.30
2022-12-18T18:46:42.960Z,92.10
2022-12-18T18:49:10.566Z,92.00
2022-12-18T18:51:37.228Z,92.00
2022-12-18T18:54:06.911Z,92.00
2022-12-18T18:57:11.980Z,91.90
2022-12-18T18:59:31.652Z,92.00
2022-12-18T19:02:04.184Z,92.00
2022-12-18T19:04:37.821Z,91.90
2022-12-18T19:07:29.427Z,91.90
2022-12-18T19:10:03.960Z,92.10
2022-12-18T19:12:51.051Z,91.70
2022-12-18T19:15:17.631Z,91.60
2022-12-18T19:17:45.999Z,91.80
2022-12-18T19:20:17.765Z,91.70
2022-12-18T19:22:44.801Z,91.60
2022-12-18T19:25:22.322Z,91.50
2022-12-18T19:27:49.526Z,91.30
2022-12-18T19:30:19.999Z,91.50
2022-12-18T19:32:46.576Z,91.60
2022-12-18T19:35:16.537Z,91.40
2022-12-18T19:38:29.823Z,91.30
2022-12-18T19:41:08.769Z,91.60
2022-12-18T19:43:40.510Z,91.60
2022-12-18T19:46:12.412Z,91.80
2022-12-18T19:48:40.016Z,91.60
2022-12-18T19:51:10.673Z,91.90
2022-12-18T19:53:37.280Z,91.70
2022-12-18T19:56:08.244Z,91.70
2022-12-18T19:58:35.470Z,91.60
2022-12-18T20:01:02.394Z,91.80
2022-12-18T20:03:32.605Z,91.80
2022-12-18T20:06:14.312Z,91.80
2022-12-18T20:08:41.159Z,91.80
2022-12-18T20:11:08.137Z,91.60
2022-12-18T20:13:36.125Z,91.80
2022-12-18T20:16:09.131Z,91.70
2022-12-18T20:18:36.008Z,91.70
2022-12-18T20:21:13.864Z,91.50
2022-12-18T20:23:41.117Z,91.70
2022-12-18T20:26:08.719Z,91.60
2022-12-18T20:28:45.218Z,91.60
2022-12-18T20:31:13.541Z,91.50
2022-12-18T20:33:43.123Z,91.40
2022-12-18T20:36:16.672Z,91.50
2022-12-18T20:38:48.765Z,91.40
2022-12-18T20:41:20.696Z,91.40
2022-12-18T20:43:48.509Z,91.40
2022-12-18T20:46:18.377Z,91.40
2022-12-18T20:48:47.841Z,91.40
2022-12-18T20:51:17.389Z,91.10
2022-12-18T20:53:45.592Z,91.20
2022-12-18T20:56:21.239Z,91.50
2022-12-18T20:58:55.320Z,91.40
2022-12-18T21:01:23.438Z,91.50
2022-12-18T21:03:50.930Z,91.60
2022-12-18T21:06:19.719Z,91.80
2022-12-18T21:08:50.625Z,91.50
2022-12-18T21:11:38.612Z,92.00
2022-12-18T21:14:28.854Z,92.20
2022-12-18T21:16:56.583Z,92.70
2022-12-18T21:19:25.773Z,93.00
2022-12-18T21:21:52.981Z,93.30
2022-12-18T21:24:19.776Z,93.60
2022-12-18T21:26:49.263Z,93.60
2022-12-18T21:29:19.362Z,93.80
2022-12-18T21:31:46.760Z,94.20
2022-12-18T21:34:29.911Z,94.40
2022-12-18T21:36:58.245Z,94.60
2022-12-18T21:39:26.386Z,94.90
2022-12-18T21:42:11.653Z,95.20
2022-12-18T21:44:42.003Z,95.80
2022-12-18T21:47:22.188Z,95.80
2022-12-18T21:49:50.675Z,96.10
2022-12-18T21:52:17.318Z,96.50
2022-12-18T21:54:44.037Z,96.30
2022-12-18T21:57:13.177Z,96.90
2022-12-18T21:59:41.386Z,96.90
2022-12-18T22:02:15.714Z,97.00
2022-12-18T22:04:43.426Z,97.10
2022-12-18T22:07:10.887Z,97.60
2022-12-18T22:09:37.999Z,97.40
2022-12-18T22:12:04.976Z,97.90
2022-12-18T22:14:31.703Z,98.10
2022-12-18T22:16:58.657Z,97.90
2022-12-18T22:19:26.761Z,98.00
2022-12-18T22:21:54.050Z,98.00
2022-12-18T22:24:25.652Z,98.60
2022-12-18T22:26:54.294Z,98.30
2022-12-18T22:29:46.605Z,98.40
2022-12-18T22:32:16.771Z,98.20
2022-12-18T22:34:46.677Z,98.00
2022-12-18T22:37:13.748Z,98.00
2022-12-18T22:39:40.374Z,97.80
2022-12-18T22:42:07.616Z,97.70
2022-12-18T22:44:34.194Z,97.40
2022-12-18T22:47:06.469Z,97.60
2022-12-18T22:49:35.673Z,97.80
2022-12-18T22:52:04.227Z,97.60
2022-12-18T22:54:30.815Z,97.70
2022-12-18T22:56:57.536Z,97.80
2022-12-18T22:59:24.402Z,97.80
2022-12-18T23:01:54.927Z,97.90
2022-12-18T23:04:30.159Z,98.00
2022-12-18T23:07:04.490Z,97.90
2022-12-18T23:09:31.114Z,98.00
2022-12-18T23:11:57.696Z,98.10
2022-12-18T23:14:24.290Z,98.40
2022-12-18T23:16:50.822Z,98.10
2022-12-18T23:19:19.916Z,98.20
2022-12-18T23:21:46.806Z,98.30
2022-12-18T23:24:13.509Z,98.30
2022-12-18T23:26:40.374Z,98.60
2022-12-18T23:29:07.378Z,98.70
2022-12-18T23:31:36.227Z,98.50
2022-12-18T23:34:04.984Z,98.70
2022-12-18T23:36:33.104Z,99.00
2022-12-18T23:39:12.617Z,99.20
2022-12-18T23:41:54.083Z,99.00
2022-12-18T23:44:20.627Z,99.50
2022-12-18T23:46:47.172Z,99.40
2022-12-18T23:49:13.920Z,99.40
2022-12-18T23:51:40.463Z,99.40
2022-12-18T23:54:06.983Z,99.70
2022-12-18T23:56:35.614Z,99.60
2022-12-18T23:59:02.195Z,99.90
